»·PEaware :: N35834 KSNA-KSBA

N35834 :: KSNA-KSBA

FLIGHT INFORMATION

Flight Status: Arrived
Operator: Privately registered:
United States
More flights under this callsign
Pilot: Andrew F. (4171)
Aircraft: PIPER PA-31/31P NAVAJO CHIEFTAIN
(PA31)
More flights by this aircraft type
Origin: KSNA John Wayne-Orange Co
United States
Destination: KSBA Santa Barbara Mun
United States
More flights between these airports :: More routes between these airports
Route: +SLI V23 LAX V299 VTU VTU282 KWANG
File this flight plan on PilotEdge
Remarks:
Altitude:
(Current/Filed)
6,000ft
Speed:
(Current/Filed)
170kts
Departed: 10-Aug-17 08:26 AM
Arrived: 10-Aug-17 09:21 AM
Distance/Time
Traveled:
108nm/0:55
Distance/Time
To Go:
Arrived

Flight Plot

Page will automatically refresh every two minutes.


Map Options




Map Legend


Flown Route
Filed Route
Departure Airport
Arrival Airport
Navaid (VOR, NDB)
Fix

Horizontal Profiles

Position Reports

Time Latitude Longitude Heading Altitude Ground
Speed
10-Aug-17 08:10 33.673159 -117.873371 46 60ft 0kts
10-Aug-17 08:11 33.673160 -117.873370 46 60ft 0kts
10-Aug-17 08:12 33.673161 -117.873368 46 60ft 0kts
10-Aug-17 08:13 33.673162 -117.873367 46 60ft 0kts
10-Aug-17 08:14 33.673163 -117.873366 46 60ft 0kts
10-Aug-17 08:15 33.673164 -117.873365 46 60ft 0kts
10-Aug-17 08:16 33.673165 -117.873363 46 60ft 0kts
10-Aug-17 08:18 33.673166 -117.873362 46 60ft 0kts
10-Aug-17 08:19 33.673167 -117.873361 46 60ft 0kts
10-Aug-17 08:19 33.673168 -117.873360 46 60ft 0kts
10-Aug-17 08:20 33.673168 -117.873359 46 60ft 0kts
10-Aug-17 08:22 33.673168 -117.873359 46 60ft 0kts
10-Aug-17 08:22 33.673169 -117.873358 46 60ft 0kts
10-Aug-17 08:23 33.673204 -117.873235 82 60ft 1kts
10-Aug-17 08:24 33.673651 -117.871776 39 60ft 18kts
10-Aug-17 08:25 33.678842 -117.868623 27 60ft 18kts
10-Aug-17 08:26 33.680906 -117.866631 114 60ft 4kts
10-Aug-17 08:27 33.680899 -117.866612 114 60ft 0kts
10-Aug-17 08:28 33.680898 -117.866610 114 60ft 0kts
10-Aug-17 08:29 33.678047 -117.867353 208 60ft 73kts
10-Aug-17 08:30 33.655084 -117.888013 233 1082ft 116kts
10-Aug-17 08:31 33.636400 -117.919501 234 2391ft 114kts
10-Aug-17 08:32 33.627293 -117.955549 301 3397ft 139kts
10-Aug-17 08:33 33.658014 -117.975493 332 4713ft 133kts
10-Aug-17 08:34 33.689723 -117.996290 341 5858ft 132kts
10-Aug-17 08:35 33.728561 -118.023014 329 5927ft 180kts
10-Aug-17 08:36 33.768806 -118.051147 327 6101ft 165kts
10-Aug-17 08:37 33.786730 -118.103254 292 6101ft 173kts
10-Aug-17 08:38 33.805735 -118.157038 295 6072ft 175kts
10-Aug-17 08:39 33.824641 -118.211437 284 5993ft 176kts
10-Aug-17 08:40 33.836157 -118.268953 285 6000ft 180kts
10-Aug-17 08:41 33.851519 -118.327899 288 5932ft 183kts
10-Aug-17 08:42 33.879268 -118.375532 322 5939ft 174kts
10-Aug-17 08:43 33.917679 -118.413382 324 5927ft 180kts
10-Aug-17 08:44 33.945622 -118.462785 297 5937ft 180kts
10-Aug-17 08:45 33.967249 -118.515556 297 5986ft 169kts
10-Aug-17 08:46 33.983914 -118.567462 287 5998ft 164kts
10-Aug-17 08:47 33.996855 -118.620172 286 5998ft 164kts
10-Aug-17 08:48 34.009638 -118.672856 286 5998ft 164kts
10-Aug-17 08:49 34.024793 -118.724755 291 6001ft 163kts
10-Aug-17 08:50 34.041279 -118.776353 288 6006ft 169kts
10-Aug-17 08:51 34.056653 -118.830382 290 5991ft 169kts
10-Aug-17 08:52 34.073154 -118.885121 290 5983ft 173kts
10-Aug-17 08:53 34.089187 -118.940614 288 5990ft 178kts
10-Aug-17 08:54 34.104826 -118.997873 287 6001ft 178kts
10-Aug-17 08:55 34.120576 -119.054873 293 6002ft 178kts
10-Aug-17 08:56 34.141723 -119.109515 297 6000ft 179kts
10-Aug-17 08:57 34.164152 -119.162432 296 6007ft 175kts
10-Aug-17 08:58 34.186527 -119.215447 297 6003ft 177kts
10-Aug-17 08:59 34.208994 -119.268331 296 6005ft 176kts
10-Aug-17 09:00 34.230723 -119.321349 296 6011ft 175kts
10-Aug-17 09:01 34.252252 -119.374106 296 6015ft 175kts
10-Aug-17 09:02 34.273858 -119.427040 297 6018ft 175kts
10-Aug-17 09:03 34.295664 -119.479663 295 6020ft 175kts
10-Aug-17 09:04 34.315843 -119.533250 291 6020ft 175kts
10-Aug-17 09:05 34.318687 -119.592183 271 6019ft 175kts
10-Aug-17 09:06 34.320200 -119.651461 271 5922ft 179kts
10-Aug-17 09:07 34.321697 -119.711602 271 5262ft 178kts
10-Aug-17 09:08 34.322903 -119.771156 271 4557ft 172kts
10-Aug-17 09:09 34.323804 -119.827263 271 4006ft 162kts
10-Aug-17 09:10 34.326684 -119.881246 281 4005ft 159kts
10-Aug-17 09:11 34.334901 -119.933916 281 4006ft 159kts
10-Aug-17 09:12 34.343082 -119.986556 281 4009ft 159kts
10-Aug-17 09:13 34.351373 -120.039473 283 4012ft 161kts
10-Aug-17 09:14 34.361218 -120.092874 283 4022ft 163kts
10-Aug-17 09:15 34.371076 -120.146409 283 4041ft 163kts
10-Aug-17 09:16 34.400614 -120.176744 24 4039ft 157kts
10-Aug-17 09:17 34.423407 -120.136707 97 4052ft 156kts
10-Aug-17 09:18 34.421328 -120.087568 90 3716ft 139kts
10-Aug-17 09:19 34.422555 -120.042382 85 3076ft 132kts
10-Aug-17 09:20 34.424527 -119.998542 87 2441ft 131kts
10-Aug-17 09:21 34.425004 -119.952309 89 1700ft 134kts
10-Aug-17 09:22 34.426643 -119.906837 89 922ft 136kts
10-Aug-17 09:23 34.427467 -119.864273 88 278ft 121kts
10-Aug-17 09:24 34.427812 -119.839370 89 14ft 17kts
10-Aug-17 09:25 34.427229 -119.837788 172 14ft 0kts
10-Aug-17 09:26 34.424996 -119.837643 166 14ft 13kts
10-Aug-17 09:27 34.423410 -119.835734 166 14ft 4kts

Navigation Log

Ident Type
1. KSNA Airport
2. SLI Navaid
3. POPPR Fix
4. HERMO Fix
5. LAX Navaid
6. SADDE Fix
7. VTU Navaid
8. KWANG Fix
9. KSBA Airport